Albion, ID

7:42 AM MDT on September 01, 2014 (GMT -0600)
ITD Idahome Interchange ID US | Change Station
CLOSE
Current Station
Personal Weather Station
Location: Malta, ID
Elevation: 4444 ft
Nearby Weather Stations

Elev 4444 ft 42.41 °N, 113.32 °W | Updated 57 minutes ago

Clear
Clear
45 °F
Feels Like 43 °F
N
4
Wind Variable Wind from SSE
Gusts 5.0 mph

Today
High -- | Low -- °F
--% Chance of Precip.
Yesterday
High -- | Low -- °F
Precip. -- in
6:59 AM 8:08 PM
Waxing Crescent, 41% visible
Pressure 29.99 in
Visibility 10.0 miles
Clouds Clear
Windchill 43 °F
Dew Point 41 °F
Humidity 86%
Rainfall 0.00 in
Snow Depth Not available.
UV 0 out of 12
Pollen 8.00 out of 12
PM2.5 Good
Flu Activity Not available.
METAR KBYI 011253Z AUTO 22006KT 10SM CLR 07/04 A3006 RMK AO2 SLP156 T00670044

More Conditions Fewer Conditions

Pressure 29.99 in
Visibility 10.0 miles
Clouds Clear
Windchill 43 °F
Dew Point 41 °F
Humidity 86%
Rainfall 0.00 in
Snow Depth Not available.
UV 0 out of 12
Pollen 8.00 out of 12
PM2.5 Good
Flu Activity Not available.
METAR KBYI 011253Z AUTO 22006KT 10SM CLR 07/04 A3006 RMK AO2 SLP156 T00670044

More Conditions Fewer Conditions

10-Day Weather Forecast

Almanac

Astronomy

Sep. 01, 2014 Rise Set
Actual Time 6:59 AM MDT 8:08 PM MDT
Civil Twilight 6:30 AM MDT 8:36 PM MDT
Nautical Twilight 5:55 AM MDT 9:11 PM MDT
Astronomical Twilight 5:19 AM MDT 9:47 PM MDT
Moon 1:57 PM MDT No Moon Set
Length of Visible Light 14h 06m
Length of Day
13h 08m
Tomorrow will be 2m 45s shorter.
Waxing Crescent, 41% of the Moon is Illuminated
Today
Waxing Crescent
Sep 2
First Quarter
Sep 8
Full
Sep 15
Last Quarter
Sep 24
New

Today's Extremes

State Highs State Lows

Community

WunderPhotos

Upload Photos

1,749,222 photos uploaded!

Nearby

Air Quality

  Air Quality AQ Index Pollutant
Current Good
PM2.5
Monday Good
PM2.5

Snow Depth

Station Depth Elevation
Magic Mountain 1 in 6880 ft
Wildhorse Divide 0 in 6490 ft
Oxford Spring 0 in 6740 ft
Wilson Creek 0 in 7120 ft
Swede Peak 1 in 7640 ft

Earthquake Activity

City Distance Mag. Time & Date
No recent earthquake activity has been reported nearby.
Minimum magnitude displayed is 2.5.

Coastal Water Temperatures

Place Temperature
No Stations Reporting

Nearby Weather Stations